Time;durP1;ratioP1;P1;durP2;ratioP2;P2;SDS_P1;SDS_P2;PMS_P1;PMS_P2;Temp;Humidity;BMP_temperature;BMP_pressure;BME280_temperature;BME280_humidity;BME280_pressure;Samples;Min_cycle;Max_cycle;Signal;HPM_P1;HPM_P2
2021/04/06 00:01:57;;;;;;;12.17;2.23;;;;;;;-0.68;78.04;99604.00;5079700;28;20663;-71
2021/04/06 00:04:24;;;;;;;12.93;2.83;;;;;;;-0.62;77.46;99588.13;5108675;28;20209;-72
2021/04/06 00:06:53;;;;;;;19.23;2.77;;;;;;;-0.71;78.30;99599.72;5097771;28;20464;-71
2021/04/06 00:09:21;;;;;;;16.27;3.20;;;;;;;-0.59;77.56;99603.75;5096573;28;20240;-71
2021/04/06 00:11:47;;;;;;;17.57;2.47;;;;;;;-0.61;77.55;99607.31;5097899;28;20196;-71
2021/04/06 00:14:14;;;;;;;12.03;2.37;;;;;;;-0.59;77.18;99610.75;5097220;28;20421;-71
2021/04/06 00:16:41;;;;;;;10.47;2.27;;;;;;;-0.66;77.45;99596.97;5079622;28;20186;-71
2021/04/06 00:19:08;;;;;;;13.07;2.40;;;;;;;-0.70;77.79;99603.19;5097003;28;20450;-70
2021/04/06 00:21:34;;;;;;;13.57;2.27;;;;;;;-0.68;78.02;99617.13;5079713;28;20174;-71
2021/04/06 00:24:01;;;;;;;14.63;3.23;;;;;;;-0.65;77.69;99624.91;5096560;28;20658;-71
2021/04/06 00:27:01;;;;;;;21.03;2.70;;;;;;;-0.81;78.01;99613.94;5096308;28;20179;-71
2021/04/06 00:29:32;;;;;;;14.70;3.40;;;;;;;-0.72;77.45;99615.47;5096587;28;20757;-71
2021/04/06 00:31:58;;;;;;;9.53;2.43;;;;;;;-0.68;77.15;99617.13;5078980;28;20223;-71
2021/04/06 00:34:25;;;;;;;11.77;2.40;;;;;;;-0.74;77.70;99609.44;5095966;28;20410;-70
2021/04/06 00:36:52;;;;;;;17.67;3.93;;;;;;;-0.75;78.17;99611.16;5096679;28;20174;-71
2021/04/06 00:39:25;;;;;;;19.17;3.87;;;;;;;-0.71;77.44;99606.72;5096822;28;20201;-71
2021/04/06 00:41:50;;;;;;;17.07;3.60;;;;;;;-0.73;77.97;99621.63;5096619;28;20619;-70
2021/04/06 00:44:16;;;;;;;15.73;2.40;;;;;;;-0.73;77.84;99619.00;5079163;28;20437;-71
2021/04/06 00:46:45;;;;;;;12.17;2.60;;;;;;;-0.71;77.76;99598.84;5097494;28;20182;-70
2021/04/06 00:49:11;;;;;;;11.47;3.27;;;;;;;-0.79;77.76;99617.38;5095611;28;20208;-71
2021/04/06 00:51:38;;;;;;;16.07;3.10;;;;;;;-0.80;78.44;99610.41;5097094;28;20174;-71
2021/04/06 00:54:06;;;;;;;13.17;2.47;;;;;;;-0.79;77.80;99634.84;5097204;28;20584;-71
2021/04/06 00:56:37;;;;;;;11.50;2.97;;;;;;;-0.75;78.02;99616.41;5096173;28;20204;-71
2021/04/06 00:59:08;;;;;;;10.53;2.10;;;;;;;-0.88;78.42;99612.38;5096023;28;20205;-71
2021/04/06 01:01:38;;;;;;;17.30;2.13;;;;;;;-0.83;77.93;99620.13;5096670;28;20181;-71
2021/04/06 01:04:08;;;;;;;14.47;2.63;;;;;;;-0.83;77.86;99620.97;5096048;28;20538;-72
2021/04/06 01:07:09;;;;;;;12.67;2.20;;;;;;;-0.78;77.46;99647.06;5079204;28;20189;-71
2021/04/06 01:09:46;;;;;;;14.30;2.50;;;;;;;-0.81;77.49;99616.56;5097503;28;20860;-71
2021/04/06 01:12:13;;;;;;;14.80;2.93;;;;;;;-0.77;77.65;99599.00;5094877;28;20190;-71
2021/04/06 01:14:41;;;;;;;11.40;2.40;;;;;;;-0.86;77.72;99618.44;5096683;28;20179;-71
2021/04/06 01:17:07;;;;;;;10.63;2.30;;;;;;;-0.88;77.97;99624.63;5095123;28;20253;-71
2021/04/06 01:19:34;;;;;;;8.67;1.93;;;;;;;-0.90;78.59;99624.66;5095209;28;20543;-71
2021/04/06 01:22:02;;;;;;;9.43;2.20;;;;;;;-0.82;77.33;99635.81;5095339;28;20180;-71
2021/04/06 01:24:29;;;;;;;10.07;2.10;;;;;;;-0.84;77.51;99623.63;5096679;28;20546;-71
2021/04/06 01:26:56;;;;;;;15.67;2.63;;;;;;;-0.89;77.98;99623.75;5095373;28;20181;-71
2021/04/06 01:29:21;;;;;;;15.47;2.40;;;;;;;-0.84;77.45;99618.41;5095281;28;20315;-71
2021/04/06 01:31:47;;;;;;;12.07;1.80;;;;;;;-0.88;77.99;99615.00;5095369;28;20231;-71
2021/04/06 01:34:13;;;;;;;7.30;1.93;;;;;;;-0.95;78.12;99624.78;5097142;28;20223;-71
2021/04/06 01:36:38;;;;;;;9.63;2.67;;;;;;;-0.97;78.80;99623.97;5096203;28;20170;-71
2021/04/06 01:39:04;;;;;;;9.33;1.87;;;;;;;-1.01;79.17;99624.94;5094922;28;20199;-71
2021/04/06 01:41:30;;;;;;;8.90;2.20;;;;;;;-0.91;78.56;99624.69;5096835;28;20172;-71
2021/04/06 01:43:56;;;;;;;13.37;2.30;;;;;;;-0.98;79.35;99609.16;5095090;28;20546;-71
2021/04/06 01:46:30;;;;;;;10.00;2.47;;;;;;;-0.99;78.83;99617.03;5095038;28;20185;-72
2021/04/06 01:48:55;;;;;;;5.80;1.70;;;;;;;-0.97;78.82;99630.97;5094919;28;20281;-71
2021/04/06 01:51:21;;;;;;;11.07;2.10;;;;;;;-1.04;78.88;99621.53;5095342;28;20178;-71
2021/04/06 01:53:46;;;;;;;14.47;2.20;;;;;;;-0.93;78.12;99631.75;5094482;28;20177;-71
2021/04/06 01:56:15;;;;;;;14.33;2.23;;;;;;;-1.01;78.55;99621.47;5094612;28;20407;-71
2021/04/06 01:58:45;;;;;;;13.53;1.90;;;;;;;-0.92;77.66;99649.19;5077356;28;20250;-71
2021/04/06 02:01:24;;;;;;;8.00;2.10;;;;;;;-0.92;78.03;99629.09;5093766;28;20480;-71
2021/04/06 02:04:05;;;;;;;14.20;1.97;;;;;;;-1.01;78.46;99630.19;5095426;28;20161;-71
2021/04/06 02:06:34;;;;;;;16.67;2.87;;;;;;;-0.93;78.25;99623.88;5093764;28;20191;-70
2021/04/06 02:09:00;;;;;;;13.03;2.20;;;;;;;-0.90;78.17;99626.41;5095385;28;20423;-71
2021/04/06 02:11:35;;;;;;;13.07;2.33;;;;;;;-0.85;77.69;99625.41;5093714;28;20422;-71
2021/04/06 02:14:10;;;;;;;10.40;2.23;;;;;;;-0.80;77.91;99648.84;5094778;28;20170;-71
2021/04/06 02:16:54;;;;;;;8.87;1.93;;;;;;;-0.70;76.70;99634.66;5094931;28;20644;-71
2021/04/06 02:19:39;;;;;;;10.17;2.23;;;;;;;-0.73;77.60;99643.44;5093905;28;20526;-71
2021/04/06 02:22:06;;;;;;;9.80;1.93;;;;;;;-0.75;77.81;99641.72;5094363;28;20265;-70
2021/04/06 02:24:37;;;;;;;9.20;1.80;;;;;;;-0.72;77.51;99628.59;5094412;28;20631;-71
2021/04/06 02:27:16;;;;;;;10.93;2.20;;;;;;;-0.81;77.34;99639.28;5093873;28;20857;-71
2021/04/06 02:29:47;;;;;;;13.53;2.53;;;;;;;-0.89;78.76;99644.72;5093227;28;20682;-71
2021/04/06 02:32:14;;;;;;;6.07;2.37;;;;;;;-0.85;78.45;99635.88;5093430;28;20398;-71
2021/04/06 02:34:51;;;;;;;13.70;2.57;;;;;;;-0.79;77.89;99663.69;5094301;28;20177;-70
2021/04/06 02:37:28;;;;;;;10.30;2.37;;;;;;;-0.80;77.80;99648.84;5094473;28;20218;-71
2021/04/06 02:39:56;;;;;;;12.70;2.37;;;;;;;-0.79;77.80;99651.44;5093171;28;20193;-71
2021/04/06 02:42:35;;;;;;;7.23;2.57;;;;;;;-0.75;77.65;99660.94;5093025;28;20182;-71
2021/04/06 02:45:00;;;;;;;5.93;1.47;;;;;;;-0.69;77.73;99650.31;5092784;28;20174;-70
2021/04/06 02:47:27;;;;;;;11.80;2.33;;;;;;;-0.72;78.30;99642.53;5094361;28;20234;-70
2021/04/06 02:49:52;;;;;;;11.13;2.20;;;;;;;-0.67;78.09;99651.16;5092790;28;20277;-70
2021/04/06 02:52:18;;;;;;;8.17;1.97;;;;;;;-0.78;78.01;99637.44;5093106;28;20212;-70
2021/04/06 02:54:43;;;;;;;10.60;2.40;;;;;;;-0.68;78.36;99643.31;5093079;28;20577;-70
2021/04/06 02:57:25;;;;;;;13.07;1.67;;;;;;;-0.70;78.49;99639.88;5093146;28;20170;-70
2021/04/06 02:59:51;;;;;;;7.80;1.83;;;;;;;-0.74;79.01;99640.88;5093815;28;20185;-70
2021/04/06 03:02:17;;;;;;;9.03;2.87;;;;;;;-0.68;78.35;99651.19;5092598;28;20174;-70
2021/04/06 03:04:43;;;;;;;12.13;2.33;;;;;;;-0.65;77.88;99648.47;5092623;28;20167;-70
2021/04/06 03:07:23;;;;;;;9.20;2.13;;;;;;;-0.66;78.30;99649.38;5092597;28;20219;-70
2021/04/06 03:09:52;;;;;;;7.40;1.93;;;;;;;-0.70;78.09;99648.59;5093724;28;20791;-70
2021/04/06 03:12:20;;;;;;;9.37;2.20;;;;;;;-0.70;78.83;99655.59;5092475;28;20506;-70
2021/04/06 03:14:47;;;;;;;8.07;2.47;;;;;;;-0.76;78.88;99647.88;5094059;28;20215;-70
2021/04/06 03:17:13;;;;;;;7.37;2.20;;;;;;;-0.83;78.36;99660.28;5093878;28;20191;-71
2021/04/06 03:19:38;;;;;;;7.43;2.00;;;;;;;-0.88;79.28;99662.16;5093284;28;20190;-71
2021/04/06 03:22:05;;;;;;;9.47;2.27;;;;;;;-0.98;79.61;99650.19;5093746;28;20170;-70
2021/04/06 03:24:31;;;;;;;15.47;3.90;;;;;;;-1.06;80.07;99658.25;5093554;28;20170;-71
2021/04/06 03:27:01;;;;;;;9.90;2.37;;;;;;;-1.05;80.07;99656.50;5092204;28;20406;-71
2021/04/06 03:29:27;;;;;;;5.27;2.10;;;;;;;-1.12;80.18;99636.56;5092177;28;20190;-70
2021/04/06 03:31:54;;;;;;;9.30;2.63;;;;;;;-1.12;80.63;99653.13;5092100;28;20425;-70
2021/04/06 03:34:19;;;;;;;11.90;2.37;;;;;;;-1.10;80.52;99647.88;5091587;28;20634;-70
2021/04/06 03:36:45;;;;;;;8.00;2.47;;;;;;;-1.24;80.49;99653.44;5093475;28;20433;-70
2021/04/06 03:39:11;;;;;;;7.10;1.97;;;;;;;-1.13;80.15;99663.63;5092011;28;20194;-71
2021/04/06 03:41:36;;;;;;;9.03;3.10;;;;;;;-1.21;81.01;99648.13;5092091;28;20437;-70
2021/04/06 03:44:12;;;;;;;9.50;2.90;;;;;;;-1.18;80.64;99647.19;5093419;28;20167;-70
2021/04/06 03:46:40;;;;;;;15.00;3.20;;;;;;;-1.22;81.17;99649.03;5092047;28;20208;-70
2021/04/06 03:49:22;;;;;;;14.63;2.40;;;;;;;-1.27;81.16;99649.13;5092114;28;20445;-70
2021/04/06 03:52:06;;;;;;;11.33;2.97;;;;;;;-1.31;81.27;99644.00;5092334;28;20429;-71
2021/04/06 03:54:46;;;;;;;9.00;2.60;;;;;;;-1.27;81.36;99637.81;5093864;28;20455;-70
2021/04/06 03:57:50;;;;;;;6.40;2.40;;;;;;;-1.21;81.25;99645.50;5093795;28;20439;-71
2021/04/06 04:00:17;;;;;;;8.13;2.77;;;;;;;-1.04;80.38;99650.34;5093336;28;20419;-70
2021/04/06 04:02:42;;;;;;;8.13;3.10;;;;;;;-1.03;80.18;99637.22;5093264;28;20410;-71
2021/04/06 04:05:07;;;;;;;8.50;3.10;;;;;;;-1.05;80.19;99651.25;5092054;28;20504;-71
2021/04/06 04:07:34;;;;;;;8.20;3.20;;;;;;;-0.96;80.31;99632.69;5093054;28;20166;-71
2021/04/06 04:10:00;;;;;;;10.77;2.70;;;;;;;-0.94;79.73;99646.59;5091838;28;20200;-71
2021/04/06 04:12:25;;;;;;;9.97;3.23;;;;;;;-1.03;80.15;99645.06;5092045;28;20411;-71
2021/04/06 04:14:51;;;;;;;7.63;3.43;;;;;;;-1.03;79.70;99650.31;5093251;28;20170;-71
2021/04/06 04:17:16;;;;;;;10.70;3.27;;;;;;;-1.02;80.55;99652.03;5093576;28;20205;-71
2021/04/06 04:19:41;;;;;;;5.37;2.53;;;;;;;-1.06;80.50;99645.16;5093326;28;20225;-71
2021/04/06 04:22:06;;;;;;;17.70;3.60;;;;;;;-1.23;81.55;99643.81;5091978;28;20201;-71
2021/04/06 04:24:32;;;;;;;5.77;2.77;;;;;;;-1.39;82.00;99670.38;5093217;28;20181;-71
2021/04/06 04:26:57;;;;;;;9.77;2.90;;;;;;;-1.26;81.81;99656.09;5093907;28;20238;-71
2021/04/06 04:29:22;;;;;;;13.03;3.23;;;;;;;-1.33;82.09;99656.28;5093756;28;20198;-71
2021/04/06 04:31:50;;;;;;;12.37;4.23;;;;;;;-1.41;82.18;99650.38;5095196;28;20184;-71
2021/04/06 04:34:15;;;;;;;16.10;3.33;;;;;;;-1.38;82.40;99663.38;5093872;28;20173;-71
2021/04/06 04:36:40;;;;;;;10.53;3.87;;;;;;;-1.45;82.55;99659.19;5093522;28;20963;-71
2021/04/06 04:39:06;;;;;;;9.13;3.17;;;;;;;-1.43;82.89;99665.25;5092308;28;20202;-71
2021/04/06 04:41:32;;;;;;;10.00;3.23;;;;;;;-1.34;81.95;99667.66;5093292;28;20171;-71
2021/04/06 04:43:57;;;;;;;12.03;3.50;;;;;;;-1.27;81.70;99679.69;5074855;28;20264;-71
2021/04/06 04:46:22;;;;;;;13.07;3.57;;;;;;;-1.32;82.70;99679.81;5076762;28;20532;-70
2021/04/06 04:48:48;;;;;;;6.37;3.23;;;;;;;-1.23;81.75;99672.63;5096589;28;20194;-71
2021/04/06 04:51:13;;;;;;;12.13;3.60;;;;;;;-1.14;81.20;99673.25;5096762;28;20281;-71
2021/04/06 04:53:38;;;;;;;16.23;4.23;;;;;;;-1.13;81.66;99676.75;5095961;28;20171;-71
2021/04/06 04:56:04;;;;;;;14.07;5.30;;;;;;;-1.06;80.66;99679.19;5096929;28;20174;-71
2021/04/06 04:58:29;;;;;;;13.07;4.17;;;;;;;-1.08;81.21;99681.00;5105797;28;20170;-71
2021/04/06 05:00:55;;;;;;;11.57;3.70;;;;;;;-1.03;80.35;99678.25;5101698;28;20167;-70
2021/04/06 05:03:20;;;;;;;11.20;3.50;;;;;;;-1.08;80.67;99673.13;5097125;28;20177;-71
2021/04/06 05:05:45;;;;;;;9.37;3.13;;;;;;;-1.07;80.72;99661.75;5098342;28;20173;-71
2021/04/06 05:08:11;;;;;;;8.70;3.63;;;;;;;-1.14;81.00;99673.25;5097476;28;20515;-71
2021/04/06 05:10:36;;;;;;;9.23;3.20;;;;;;;-1.13;80.39;99661.88;5097263;28;20692;-71
2021/04/06 05:13:01;;;;;;;16.47;3.23;;;;;;;-1.24;81.57;99671.75;5097705;28;20203;-70
2021/04/06 05:15:29;;;;;;;11.57;3.33;;;;;;;-1.16;81.44;99682.03;5096847;28;20171;-71
2021/04/06 05:17:55;;;;;;;9.40;3.57;;;;;;;-1.16;80.92;99680.28;5096743;28;20641;-71
2021/04/06 05:20:20;;;;;;;11.27;3.97;;;;;;;-1.13;80.34;99677.59;5097551;28;20427;-71
2021/04/06 05:22:45;;;;;;;7.53;3.40;;;;;;;-1.04;80.60;99679.16;5096717;28;20205;-70
2021/04/06 05:25:11;;;;;;;8.40;3.33;;;;;;;-1.10;80.63;99672.31;5097181;28;20208;-70
2021/04/06 05:27:36;;;;;;;8.90;3.10;;;;;;;-1.08;81.02;99672.28;5094827;28;20185;-71
2021/04/06 05:30:02;;;;;;;14.73;2.87;;;;;;;-1.04;80.98;99674.78;5096380;28;20693;-71
2021/04/06 05:32:27;;;;;;;14.37;3.87;;;;;;;-1.05;81.03;99678.31;5096259;28;20181;-71
2021/04/06 05:34:53;;;;;;;9.53;3.90;;;;;;;-0.99;80.43;99686.00;5096809;28;20410;-71
2021/04/06 05:37:18;;;;;;;10.07;3.57;;;;;;;-0.96;80.45;99691.16;5095964;28;20611;-71
2021/04/06 05:39:43;;;;;;;8.23;3.47;;;;;;;-0.85;80.17;99677.78;5095647;28;20751;-71
2021/04/06 05:42:11;;;;;;;11.60;3.30;;;;;;;-0.78;nan;99683.75;5094315;28;20188;-72
2021/04/06 05:44:40;;;;;;;9.23;3.90;;;;;;;-0.74;79.90;99688.03;5098986;28;20166;-71
2021/04/06 05:47:13;;;;;;;14.30;3.07;;;;;;;-0.72;79.53;99681.00;5094647;28;20219;-72
2021/04/06 05:49:39;;;;;;;9.17;3.40;;;;;;;-0.71;79.19;99682.72;5094357;28;20251;-72
2021/04/06 05:52:04;;;;;;;9.33;3.50;;;;;;;-0.71;79.68;99690.56;5094331;28;20411;-72
2021/04/06 05:54:30;;;;;;;9.47;3.37;;;;;;;-0.51;79.11;99684.81;5095674;28;20175;-72
2021/04/06 05:56:55;;;;;;;9.03;4.03;;;;;;;-0.47;78.89;99703.03;5096205;28;20259;-71
2021/04/06 05:59:20;;;;;;;12.63;3.40;;;;;;;-0.55;79.41;99699.75;5095791;28;20188;-71
2021/04/06 06:01:47;;;;;;;10.00;3.37;;;;;;;-0.53;79.07;99684.84;5095382;28;20169;-71
2021/04/06 06:04:15;;;;;;;8.70;3.07;;;;;;;-0.52;79.02;99690.94;5094114;28;20209;-72
2021/04/06 06:06:40;;;;;;;10.13;3.47;;;;;;;-0.58;78.88;99689.34;5095758;28;20380;-71
2021/04/06 06:09:08;;;;;;;9.70;3.77;;;;;;;-0.55;79.49;99683.16;5094196;28;20554;-71
2021/04/06 06:11:33;;;;;;;6.20;3.00;;;;;;;-0.46;79.40;99683.78;5095816;28;20170;-72
2021/04/06 06:13:59;;;;;;;16.93;4.03;;;;;;;-0.40;79.07;99677.50;5094176;28;20414;-72
2021/04/06 06:16:26;;;;;;;11.00;3.63;;;;;;;-0.39;78.59;99697.59;5095778;28;20181;-72
2021/04/06 06:19:10;;;;;;;14.63;3.57;;;;;;;-0.39;79.16;99681.84;5096276;28;20319;-72
2021/04/06 06:21:35;;;;;;;8.33;3.33;;;;;;;-0.35;79.22;99673.88;5095944;28;20169;-72
2021/04/06 06:24:01;;;;;;;12.53;3.70;;;;;;;-0.37;79.16;99682.69;5096173;28;20169;-72
2021/04/06 06:26:26;;;;;;;12.97;3.87;;;;;;;-0.23;78.60;99687.56;5078469;28;20176;-71
2021/04/06 06:29:08;;;;;;;10.40;3.40;;;;;;;-0.19;78.80;99689.19;5096693;28;20682;-71
2021/04/06 06:31:39;;;;;;;11.50;4.07;;;;;;;-0.19;78.84;99695.28;5094956;28;20178;-72
2021/04/06 06:34:28;;;;;;;14.60;3.97;;;;;;;-0.14;78.55;99682.06;5094846;28;20281;-71
2021/04/06 06:37:12;;;;;;;18.37;4.67;;;;;;;-0.02;77.90;99693.06;5094741;28;20177;-70
2021/04/06 06:39:48;;;;;;;7.80;3.40;;;;;;;0.15;77.77;99703.09;5095134;28;20273;-70
2021/04/06 06:42:16;;;;;;;14.60;3.60;;;;;;;0.22;77.33;99696.75;5095759;28;20178;-71
2021/04/06 06:44:41;;;;;;;13.57;4.10;;;;;;;0.21;77.51;99695.03;5096205;28;20169;-71
2021/04/06 06:47:12;;;;;;;11.27;4.00;;;;;;;0.34;76.61;99692.91;5094693;28;20657;-71
2021/04/06 06:49:39;;;;;;;11.33;3.97;;;;;;;0.29;76.80;99698.28;5094609;28;20202;-71
2021/04/06 06:52:08;;;;;;;11.53;3.53;;;;;;;0.36;76.67;99701.59;5076891;28;20243;-73
2021/04/06 06:54:35;;;;;;;9.60;3.53;;;;;;;0.31;76.80;99693.00;5077121;28;20527;-72
2021/04/06 06:57:11;;;;;;;18.23;4.03;;;;;;;0.22;77.44;99681.00;5094393;28;20183;-72
2021/04/06 06:59:43;;;;;;;7.90;3.50;;;;;;;0.27;77.47;99694.00;5094520;28;20181;-72
2021/04/06 07:02:25;;;;;;;10.33;4.00;;;;;;;0.29;77.27;99708.78;5093236;28;20154;-72
2021/04/06 07:04:52;;;;;;;7.90;3.77;;;;;;;0.26;77.24;99684.41;5093116;28;20189;-72
2021/04/06 07:07:18;;;;;;;17.00;4.47;;;;;;;0.32;76.93;99687.72;5094638;28;20170;-72
2021/04/06 07:09:44;;;;;;;10.37;4.23;;;;;;;0.30;77.09;99679.03;5092110;28;20558;-71
2021/04/06 07:12:13;;;;;;;14.33;4.30;;;;;;;0.26;77.50;99698.38;5101472;28;20166;-72
2021/04/06 07:14:40;;;;;;;10.43;4.33;;;;;;;0.47;76.75;99680.31;5096609;28;20182;-70
2021/04/06 07:17:07;;;;;;;9.37;4.93;;;;;;;0.53;76.83;99680.13;5095004;28;20206;-72
2021/04/06 07:19:35;;;;;;;10.83;3.63;;;;;;;0.66;76.28;99676.19;5096809;28;20190;-72
2021/04/06 07:22:02;;;;;;;12.47;3.83;;;;;;;0.75;76.48;99690.84;5097212;28;20170;-71
2021/04/06 07:24:31;;;;;;;12.03;4.23;;;;;;;0.81;76.04;99665.22;5095068;28;20170;-71
2021/04/06 07:26:57;;;;;;;14.93;4.33;;;;;;;0.85;75.60;99681.75;5094914;28;20177;-72
2021/04/06 07:29:22;;;;;;;13.07;4.20;;;;;;;0.88;75.10;99674.63;5094943;28;20272;-71
2021/04/06 07:31:48;;;;;;;12.40;4.30;;;;;;;0.97;75.16;99677.88;5095107;28;20206;-71
2021/04/06 07:34:13;;;;;;;12.60;3.80;;;;;;;0.91;73.63;99666.66;5093582;28;20529;-71
2021/04/06 07:36:39;;;;;;;10.03;4.00;;;;;;;0.97;74.69;99667.34;5094506;28;20170;-71
2021/04/06 07:39:09;;;;;;;10.90;3.83;;;;;;;1.09;74.16;99669.56;5093062;28;20524;-70
2021/04/06 07:41:42;;;;;;;9.20;3.53;;;;;;;1.19;73.87;99681.53;5094194;28;20192;-71
2021/04/06 07:44:08;;;;;;;10.07;3.50;;;;;;;1.27;73.71;99682.13;5093343;28;20158;-71
2021/04/06 07:46:33;;;;;;;14.93;4.07;;;;;;;1.29;72.71;99672.41;5094946;28;20252;-72
2021/04/06 07:48:59;;;;;;;9.10;3.13;;;;;;;1.39;71.81;99681.69;5093631;28;20683;-72
2021/04/06 07:51:27;;;;;;;12.63;3.43;;;;;;;1.34;71.80;99670.50;5092983;28;20194;-71
2021/04/06 07:53:54;;;;;;;12.60;4.03;;;;;;;1.42;72.34;99675.47;5095204;28;20166;-72
2021/04/06 07:56:59;;;;;;;12.93;3.93;;;;;;;1.50;71.33;99655.94;5093799;28;20174;-72
2021/04/06 07:59:24;;;;;;;11.57;3.30;;;;;;;1.60;71.24;99669.59;5042994;28;20216;-72
2021/04/06 08:01:58;;;;;;;9.67;3.63;;;;;;;1.79;70.40;99672.44;5094627;28;20170;-71
2021/04/06 08:04:25;;;;;;;13.80;3.77;;;;;;;1.72;70.47;99663.03;5093738;28;20260;-71
2021/04/06 08:06:57;;;;;;;14.93;3.40;;;;;;;1.66;70.04;99658.00;5093147;28;20170;-70
2021/04/06 08:09:32;;;;;;;9.17;3.13;;;;;;;1.75;69.71;99676.09;5092756;28;20692;-72
2021/04/06 08:12:07;;;;;;;9.97;3.67;;;;;;;1.89;69.53;99668.59;5095073;28;20178;-73
2021/04/06 08:14:50;;;;;;;10.33;4.03;;;;;;;1.88;68.86;99674.75;5092955;28;20215;-72
2021/04/06 08:17:25;;;;;;;8.07;3.20;;;;;;;1.91;68.71;99687.81;5094215;28;20202;-70
2021/04/06 08:20:03;;;;;;;10.57;3.33;;;;;;;1.84;69.00;99675.75;5094144;28;20185;-71
2021/04/06 08:22:31;;;;;;;10.00;3.93;;;;;;;1.69;75.73;99676.31;5097340;28;20158;-72
2021/04/06 08:25:15;;;;;;;12.97;3.30;;;;;;;1.55;74.48;99677.66;5097192;28;20170;-71
2021/04/06 08:27:40;;;;;;;15.27;3.20;;;;;;;1.62;71.47;99674.81;5098512;28;20175;-71
2021/04/06 08:30:27;;;;;;;9.17;2.83;;;;;;;1.78;71.82;99681.25;5098327;28;20205;-73
2021/04/06 08:38:25;;;;;;;9.27;2.80;;;;;;;1.84;73.81;99683.66;5099432;28;20208;-71
2021/04/06 08:40:53;;;;;;;12.17;3.27;;;;;;;2.03;73.23;99670.72;5098676;28;20194;-71
2021/04/06 08:43:21;;;;;;;13.53;3.10;;;;;;;1.97;74.89;99679.69;5098571;28;20175;-72
2021/04/06 08:46:02;;;;;;;16.10;3.43;;;;;;;2.02;72.56;99713.72;5098140;28;20512;-72
2021/04/06 08:48:46;;;;;;;11.37;2.67;;;;;;;1.79;72.05;99660.13;5097114;28;20283;-71
2021/04/06 08:51:32;;;;;;;9.93;2.90;;;;;;;2.33;72.02;99666.09;5098316;28;20275;-70
2021/04/06 08:54:02;;;;;;;8.90;3.07;;;;;;;2.48;71.38;99668.97;5098515;28;20230;-71
2021/04/06 08:56:34;;;;;;;11.03;3.30;;;;;;;2.32;74.72;99662.59;5097063;28;20742;-70
2021/04/06 08:59:17;;;;;;;15.23;3.40;;;;;;;2.42;69.33;99685.03;5098231;28;20248;-70
2021/04/06 09:01:44;;;;;;;7.63;2.70;;;;;;;2.40;68.45;99676.31;5096838;28;20659;-71
2021/04/06 09:04:12;;;;;;;7.67;2.43;;;;;;;2.37;67.58;99662.41;5098427;28;20216;-71
2021/04/06 09:06:37;;;;;;;7.87;2.33;;;;;;;2.15;74.71;99670.25;5103427;28;20232;-71
2021/04/06 09:09:12;;;;;;;12.17;2.93;;;;;;;2.55;69.23;99710.88;5101936;28;20220;-71
2021/04/06 09:11:39;;;;;;;12.90;3.10;;;;;;;2.45;69.71;99663.84;5099001;28;20198;-71
2021/04/06 09:14:05;;;;;;;11.93;2.53;;;;;;;2.40;70.85;99668.41;5098759;28;20184;-72
2021/04/06 09:16:32;;;;;;;11.20;2.83;;;;;;;2.47;70.33;99671.66;5097067;28;20182;-71
2021/04/06 09:19:00;;;;;;;10.80;2.50;;;;;;;2.50;72.03;99674.19;5079153;28;20570;-72
2021/04/06 09:21:27;;;;;;;8.57;2.60;;;;;;;2.57;68.64;99691.47;5096444;28;20183;-72
2021/04/06 09:23:54;;;;;;;9.93;1.90;;;;;;;2.32;68.93;99662.59;5097969;28;20176;-71
2021/04/06 09:26:19;;;;;;;11.33;2.70;;;;;;;2.57;70.64;99659.84;5098445;28;20220;-71
2021/04/06 09:28:45;;;;;;;12.07;2.63;;;;;;;3.00;65.25;99674.00;5096458;28;20746;-72
2021/04/06 09:31:12;;;;;;;10.90;2.53;;;;;;;3.35;63.55;99662.88;5097176;28;20262;-72
2021/04/06 09:33:38;;;;;;;9.57;2.60;;;;;;;3.52;66.73;99650.72;5094609;28;20176;-71
2021/04/06 09:36:05;;;;;;;11.60;2.60;;;;;;;3.96;62.35;99669.91;5095462;28;20242;-71
2021/04/06 09:38:35;;;;;;;9.70;2.60;;;;;;;4.02;58.48;99667.84;5097612;28;20245;-71
2021/04/06 09:41:01;;;;;;;11.37;2.53;;;;;;;3.77;59.07;99656.66;5098597;28;20575;-70
2021/04/06 09:43:26;;;;;;;6.53;2.30;;;;;;;4.01;58.74;99663.50;5096338;28;20205;-72
2021/04/06 09:45:52;;;;;;;9.27;2.70;;;;;;;3.96;61.07;99662.84;5096829;28;20192;-72
2021/04/06 09:48:17;;;;;;;6.17;2.47;;;;;;;4.24;60.94;99649.25;5096179;28;20691;-72
2021/04/06 09:51:00;;;;;;;10.70;1.90;;;;;;;4.10;53.31;99651.69;5095977;28;20604;-72
2021/04/06 09:53:26;;;;;;;10.23;2.67;;;;;;;4.03;56.67;99643.16;5096134;28;20167;-71
2021/04/06 09:55:54;;;;;;;16.00;2.63;;;;;;;4.12;55.39;99663.03;5094668;28;20181;-71
2021/04/06 09:58:19;;;;;;;8.17;2.43;;;;;;;3.77;57.05;99677.78;5094376;28;20181;-72
2021/04/06 10:00:45;;;;;;;9.07;2.47;;;;;;;4.07;54.58;99652.66;5094290;28;20205;-71
2021/04/06 10:03:14;;;;;;;10.23;1.60;;;;;;;4.46;52.13;99635.94;5095710;28;20200;-71
2021/04/06 10:05:43;;;;;;;7.47;2.10;;;;;;;4.59;54.01;99652.06;5094426;28;20173;-71
2021/04/06 10:08:10;;;;;;;5.27;1.80;;;;;;;4.46;55.18;99635.94;5094392;28;20592;-72
2021/04/06 10:10:36;;;;;;;8.23;1.97;;;;;;;4.78;53.64;99649.38;5095515;28;20216;-71
2021/04/06 10:13:03;;;;;;;7.87;2.33;;;;;;;4.76;55.27;99651.25;5095601;28;20516;-71
2021/04/06 10:15:31;;;;;;;8.60;2.00;;;;;;;4.57;55.84;99646.84;5097108;28;20174;-72
2021/04/06 10:18:09;;;;;;;8.57;2.00;;;;;;;5.02;56.19;99633.19;5099506;28;20181;-71
2021/04/06 10:20:43;;;;;;;8.63;2.37;;;;;;;5.13;55.41;99645.88;5101458;28;20208;-71
2021/04/06 10:23:09;;;;;;;8.00;1.90;;;;;;;4.90;54.15;99643.53;5099914;28;20177;-72
2021/04/06 10:25:45;;;;;;;6.23;1.90;;;;;;;4.91;54.62;99634.66;5094539;28;20232;-72
2021/04/06 10:28:24;;;;;;;3.60;1.80;;;;;;;5.23;54.33;99622.50;5096596;28;20181;-72
2021/04/06 10:31:01;;;;;;;8.13;1.80;;;;;;;5.09;52.24;99617.03;5095185;28;20228;-71
2021/04/06 10:33:29;;;;;;;8.60;1.93;;;;;;;4.54;52.08;99622.34;5098988;28;20173;-71
2021/04/06 10:35:57;;;;;;;5.87;2.10;;;;;;;4.55;52.23;99617.00;5097317;28;20182;-70
2021/04/06 10:38:25;;;;;;;8.27;2.47;;;;;;;4.86;52.88;99634.88;5094492;28;20548;-71
2021/04/06 10:41:10;;;;;;;8.57;1.90;;;;;;;5.42;52.75;99625.06;5095898;28;20192;-71
2021/04/06 10:43:37;;;;;;;4.07;1.73;;;;;;;5.71;50.28;99621.78;5094277;28;20188;-71
2021/04/06 10:46:06;;;;;;;9.63;2.37;;;;;;;5.44;52.27;99607.31;5094203;28;20177;-71
2021/04/06 10:48:38;;;;;;;5.33;1.70;;;;;;;5.62;50.31;99594.00;5095161;28;20170;-70
2021/04/06 10:51:14;;;;;;;7.13;1.90;;;;;;;6.02;51.65;99604.31;5094109;28;20225;-70
2021/04/06 10:53:49;;;;;;;9.40;1.90;;;;;;;6.34;47.05;99600.78;5093808;28;20265;-71
2021/04/06 10:56:19;;;;;;;9.73;1.97;;;;;;;6.67;47.62;99592.72;5094314;28;20205;-71
2021/04/06 10:59:06;;;;;;;6.33;1.67;;;;;;;6.44;45.30;99578.13;5094559;28;20170;-71
2021/04/06 11:01:43;;;;;;;6.57;1.67;;;;;;;4.65;56.45;99620.91;5092934;28;20165;-71
2021/04/06 11:04:17;;;;;;;5.00;1.20;;;;;;;3.92;60.37;99612.91;5094724;28;20181;-71
2021/04/06 11:06:45;;;;;;;6.73;1.60;;;;;;;3.68;59.31;99599.00;5093332;28;20188;-71
2021/04/06 11:09:18;;;;;;;8.03;1.10;;;;;;;3.78;56.55;99615.31;5094391;28;20221;-73
2021/04/06 11:11:45;;;;;;;4.50;1.50;;;;;;;4.80;54.38;99611.38;5094011;28;20271;-70
2021/04/06 11:14:16;;;;;;;6.17;1.40;;;;;;;7.11;49.29;99629.13;5094123;28;20178;-72
2021/04/06 11:16:42;;;;;;;4.17;1.50;;;;;;;9.39;43.48;99617.47;5094623;28;20211;-72
2021/04/06 11:19:32;;;;;;;3.93;1.40;;;;;;;10.83;40.53;99610.94;5094374;28;20221;-72
2021/04/06 11:22:18;;;;;;;5.33;1.50;;;;;;;11.97;38.65;99596.06;5092799;28;20172;-72
2021/04/06 11:24:46;;;;;;;5.53;1.60;;;;;;;12.19;39.08;99616.63;5092373;28;20235;-72
2021/04/06 11:27:13;;;;;;;4.83;1.30;;;;;;;12.69;36.57;99612.59;5092827;28;20178;-72
2021/04/06 11:29:39;;;;;;;5.63;1.30;;;;;;;12.92;36.14;99615.22;5092886;28;20198;-72
2021/04/06 11:32:07;;;;;;;3.97;1.53;;;;;;;13.22;33.91;99593.97;5095493;28;20249;-72
2021/04/06 11:34:33;;;;;;;3.83;1.40;;;;;;;13.44;33.77;99609.13;5093082;28;20642;-71
2021/04/06 11:36:58;;;;;;;3.60;1.50;;;;;;;13.09;33.43;99606.66;5093537;28;20265;-71
2021/04/06 11:39:30;;;;;;;2.63;1.10;;;;;;;13.14;34.46;99589.22;5093786;28;20232;-70
2021/04/06 11:41:57;;;;;;;5.10;1.50;;;;;;;13.18;33.83;99586.31;5094129;28;20591;-71
2021/04/06 11:44:22;;;;;;;2.80;1.43;;;;;;;12.88;34.17;99589.66;5093736;28;20295;-70
2021/04/06 11:46:48;;;;;;;7.33;1.60;;;;;;;12.44;35.15;99572.72;5093457;28;20193;-70
2021/04/06 11:49:15;;;;;;;3.90;1.73;;;;;;;11.03;36.10;99571.22;5093105;28;20197;-69